Time;durP1;ratioP1;P1;durP2;ratioP2;P2;SDS_P1;SDS_P2;PMS_P1;PMS_P2;Temp;Humidity;BMP_temperature;BMP_pressure;BME280_temperature;BME280_humidity;BME280_pressure;Samples;Min_cycle;Max_cycle;Signal;HPM_P1;HPM_P2
2022/12/20 00:01:58;;;;;;;348.10;200.20;;;;;;;12.60;79.47;98910.56;4958744;28;20118;-59
2022/12/20 00:04:52;;;;;;;350.13;191.23;;;;;;;12.47;79.65;98914.19;4958766;28;20046;-59
2022/12/20 00:07:29;;;;;;;356.02;192.73;;;;;;;12.47;79.36;98913.38;4956359;28;20803;-58
2022/12/20 00:10:17;;;;;;;356.53;197.37;;;;;;;12.55;79.27;98921.19;4959413;28;20046;-59
2022/12/20 00:13:06;;;;;;;335.25;190.52;;;;;;;12.46;79.18;98919.84;4959878;28;20740;-58
2022/12/20 00:15:48;;;;;;;342.83;190.07;;;;;;;12.43;79.40;98922.97;4961716;28;20050;-57
2022/12/20 00:18:37;;;;;;;373.40;205.35;;;;;;;12.17;80.19;98924.84;4956755;28;20055;-58
2022/12/20 00:21:20;;;;;;;398.02;219.80;;;;;;;12.15;80.89;98916.13;4959495;28;20073;-59
2022/12/20 00:24:08;;;;;;;442.40;250.30;;;;;;;12.39;79.70;98927.94;4956722;28;20050;-62
2022/12/20 00:27:05;;;;;;;445.80;251.15;;;;;;;12.23;79.21;98925.81;4958499;28;20047;-56
2022/12/20 00:29:56;;;;;;;389.90;215.68;;;;;;;12.18;79.78;98931.03;4958785;28;20072;-59
2022/12/20 00:32:38;;;;;;;375.02;199.80;;;;;;;11.95;80.03;98932.44;4954408;28;20114;-59
2022/12/20 00:35:27;;;;;;;376.40;203.77;;;;;;;11.83;80.40;98934.16;4940335;28;20042;-60
2022/12/20 00:38:10;;;;;;;362.30;198.52;;;;;;;12.09;80.22;98941.22;4959131;28;20058;-59
2022/12/20 00:41:29;;;;;;;354.08;193.23;;;;;;;11.77;80.41;98927.78;4958909;28;20070;-58
2022/12/20 00:44:27;;;;;;;354.00;194.82;;;;;;;11.57;81.09;98936.75;4949045;28;20051;-56
2022/12/20 00:47:22;;;;;;;351.52;189.15;;;;;;;11.69;80.85;98945.00;4954599;28;20066;-58
2022/12/20 00:49:58;;;;;;;338.48;186.60;;;;;;;11.53;80.64;98943.59;4964977;28;20058;-60
2022/12/20 00:52:46;;;;;;;341.60;185.82;;;;;;;11.33;81.13;98941.03;4937707;28;20047;-58
2022/12/20 00:55:35;;;;;;;345.60;189.10;;;;;;;11.25;81.25;98949.31;4964909;28;20051;-59
2022/12/20 00:58:17;;;;;;;348.35;188.95;;;;;;;11.25;81.66;98953.84;4960029;28;20066;-59
2022/12/20 01:01:07;;;;;;;345.83;189.32;;;;;;;11.22;80.82;98946.25;4955786;28;20551;-58
2022/12/20 01:03:50;;;;;;;344.55;187.82;;;;;;;11.27;81.04;98963.38;4962059;28;20054;-59
2022/12/20 01:06:40;;;;;;;346.38;184.70;;;;;;;11.17;80.89;98954.91;4948129;28;20386;-58
2022/12/20 01:09:22;;;;;;;336.27;180.23;;;;;;;11.15;81.40;98963.19;4964477;28;20058;-57
2022/12/20 01:12:11;;;;;;;333.48;181.50;;;;;;;11.22;81.29;98971.22;4942416;28;20058;-58
2022/12/20 01:15:00;;;;;;;335.98;178.40;;;;;;;11.20;80.74;98962.56;4958039;28;20129;-59
2022/12/20 01:17:43;;;;;;;321.40;173.63;;;;;;;11.15;80.37;98975.78;4965748;28;20043;-60
2022/12/20 01:20:32;;;;;;;327.42;177.60;;;;;;;11.08;80.58;98970.47;4950365;28;20054;-58
2022/12/20 01:23:14;;;;;;;331.48;174.80;;;;;;;11.24;79.80;98979.09;4958740;28;20059;-57
2022/12/20 01:26:08;;;;;;;341.40;176.65;;;;;;;11.14;80.74;98977.66;4946581;29;20391;-60
2022/12/20 01:29:00;;;;;;;329.33;174.55;;;;;;;10.99;80.87;98990.50;4936271;29;20054;-57
2022/12/20 01:31:42;;;;;;;331.05;178.43;;;;;;;10.84;80.97;98988.06;4947022;28;20143;-58
2022/12/20 01:34:31;;;;;;;322.73;172.65;;;;;;;10.90;81.36;98992.59;4954328;28;20137;-58
2022/12/20 01:37:13;;;;;;;320.48;174.00;;;;;;;10.90;80.97;98991.75;4948865;28;20225;-60
2022/12/20 01:40:02;;;;;;;321.05;167.57;;;;;;;10.98;82.14;99003.09;4931107;29;20051;-60
2022/12/20 01:48:27;;;;;;;321.30;165.35;;;;;;;10.88;80.02;99004.56;4943712;28;20071;-53
2022/12/20 01:51:24;;;;;;;306.98;168.00;;;;;;;10.60;80.20;99005.63;4936571;29;20051;-57
2022/12/20 01:54:37;;;;;;;305.35;162.60;;;;;;;10.71;80.53;99007.69;4929934;29;20055;-53
2022/12/20 01:57:43;;;;;;;309.30;160.70;;;;;;;10.70;80.01;99013.25;4938462;29;20458;-56
2022/12/20 02:00:20;;;;;;;296.58;160.35;;;;;;;10.55;80.79;99016.97;4914254;29;20066;-57
2022/12/20 02:03:12;;;;;;;295.50;157.10;;;;;;;10.48;80.72;99021.50;4927064;29;20051;-55
2022/12/20 02:06:00;;;;;;;282.15;152.90;;;;;;;10.48;80.27;99026.06;4945370;29;20399;-54
2022/12/20 02:08:51;;;;;;;295.70;151.05;;;;;;;10.28;80.88;99026.84;4949345;29;20051;-56
2022/12/20 02:11:43;;;;;;;285.48;152.88;;;;;;;10.20;81.43;99040.44;4948715;29;20076;-56
2022/12/20 02:14:53;;;;;;;280.40;148.75;;;;;;;10.16;81.23;99041.88;4950462;29;20047;-56
2022/12/20 02:17:51;;;;;;;285.08;148.63;;;;;;;10.14;81.47;99041.25;4946634;29;20047;-56
2022/12/20 02:21:05;;;;;;;264.02;144.18;;;;;;;10.26;80.77;99050.38;4926547;29;20059;-56
2022/12/20 02:24:28;;;;;;;260.23;140.90;;;;;;;10.23;80.59;99047.25;4929964;29;20055;-53
2022/12/20 02:27:39;;;;;;;258.13;139.45;;;;;;;10.18;80.04;99050.53;4929677;29;20055;-56
2022/12/20 02:30:21;;;;;;;256.60;136.98;;;;;;;10.36;80.52;99053.50;4927530;29;20546;-55
2022/12/20 02:33:12;;;;;;;257.88;139.98;;;;;;;10.54;80.24;99058.25;4935397;29;20573;-55
2022/12/20 02:35:54;;;;;;;246.60;137.38;;;;;;;10.75;79.88;99059.91;4944514;29;20054;-56
2022/12/20 02:38:50;;;;;;;262.70;139.98;;;;;;;10.98;79.47;99058.66;4929904;29;20055;-56
2022/12/20 02:41:45;;;;;;;265.40;143.65;;;;;;;10.44;79.16;99059.72;4936879;29;20051;-57
2022/12/20 02:48:10;;;;;;;285.85;153.40;;;;;;;10.29;80.33;99076.75;4964823;28;20109;-56
2022/12/20 02:50:50;;;;;;;283.38;152.98;;;;;;;10.33;80.72;99079.91;4965178;28;20414;-56
2022/12/20 02:53:41;;;;;;;291.75;155.13;;;;;;;10.77;79.57;99071.28;4948764;29;20138;-57
2022/12/20 02:56:44;;;;;;;293.17;158.68;;;;;;;11.00;78.77;99083.47;4950772;28;20052;-57
2022/12/20 02:59:36;;;;;;;293.88;158.25;;;;;;;11.35;78.76;99083.22;4967521;28;20043;-58
2022/12/20 03:02:26;;;;;;;283.63;153.52;;;;;;;11.03;79.44;99079.56;4967030;28;20050;-57
2022/12/20 03:05:22;;;;;;;304.20;158.25;;;;;;;11.30;78.53;99091.91;4968295;28;20055;-57
2022/12/20 03:08:11;;;;;;;296.38;157.48;;;;;;;11.54;77.95;99097.63;4966603;28;20047;-58
2022/12/20 03:10:55;;;;;;;283.85;153.52;;;;;;;11.69;77.60;99094.69;4951474;28;20051;-55
2022/12/20 03:13:44;;;;;;;284.00;151.73;;;;;;;11.64;77.68;99099.91;4960852;28;20058;-54
2022/12/20 03:16:26;;;;;;;283.85;153.38;;;;;;;11.79;76.57;99110.38;4963908;28;20089;-55
2022/12/20 03:19:16;;;;;;;281.63;151.07;;;;;;;11.78;78.18;99106.88;4966935;28;20042;-56
2022/12/20 03:21:58;;;;;;;286.77;155.73;;;;;;;10.75;80.56;99116.28;4952224;28;20062;-55
2022/12/20 03:24:47;;;;;;;285.63;150.20;;;;;;;11.45;79.58;99115.84;4933966;28;20091;-56
2022/12/20 03:27:29;;;;;;;283.60;153.52;;;;;;;11.85;78.94;99121.13;4942406;28;20604;-56
2022/12/20 03:30:25;;;;;;;280.42;149.73;;;;;;;12.15;78.81;99128.69;4946812;28;20047;-57
2022/12/20 03:33:01;;;;;;;277.10;151.73;;;;;;;12.34;77.37;99119.72;4950897;28;20058;-60
2022/12/20 03:35:56;;;;;;;285.73;152.10;;;;;;;12.46;77.28;99129.78;4966768;28;20054;-57
2022/12/20 03:38:32;;;;;;;284.33;149.07;;;;;;;12.88;76.77;99140.91;4949615;28;20046;-55
2022/12/20 03:41:22;;;;;;;267.08;151.25;;;;;;;12.95;76.20;99135.47;4961840;28;20058;-55
2022/12/20 03:44:06;;;;;;;270.92;151.93;;;;;;;13.36;75.05;99137.63;4943750;28;20134;-58
2022/12/20 03:47:01;;;;;;;266.48;148.13;;;;;;;13.50;74.24;99143.72;4957661;28;20059;-56
2022/12/20 03:49:58;;;;;;;265.83;149.82;;;;;;;13.95;74.03;99156.94;4950146;28;20149;-56
2022/12/20 03:52:35;;;;;;;261.23;145.70;;;;;;;14.03;73.14;99162.03;4967477;28;20112;-57
2022/12/20 03:55:30;;;;;;;268.77;148.07;;;;;;;14.32;72.77;99156.91;4949512;28;20755;-56
2022/12/20 03:58:06;;;;;;;265.35;149.15;;;;;;;14.34;72.01;99159.41;4940522;28;20050;-60
2022/12/20 04:00:57;;;;;;;260.83;146.10;;;;;;;14.48;72.25;99175.19;4953584;28;20058;-60
2022/12/20 04:03:45;;;;;;;256.98;147.38;;;;;;;14.60;71.75;99177.97;4947829;28;20509;-58
2022/12/20 04:06:34;;;;;;;255.35;146.75;;;;;;;14.45;72.33;99181.03;4964024;28;20051;-60
2022/12/20 04:09:16;;;;;;;276.52;151.75;;;;;;;14.96;71.55;99188.88;4945356;29;20107;-60
2022/12/20 04:12:11;;;;;;;264.50;150.27;;;;;;;15.19;71.33;99196.22;4962402;28;20125;-58
2022/12/20 04:14:53;;;;;;;262.23;151.13;;;;;;;15.08;71.27;99198.69;4947313;29;20047;-56
2022/12/20 04:17:44;;;;;;;267.55;158.32;;;;;;;16.04;67.83;99195.81;4944650;28;20805;-58
2022/12/20 04:20:33;;;;;;;257.35;148.77;;;;;;;16.84;67.19;99198.78;4966054;28;20051;-59
2022/12/20 04:23:24;;;;;;;248.00;146.75;;;;;;;17.08;64.85;99201.38;4948354;28;20050;-58
2022/12/20 04:26:16;;;;;;;244.65;146.95;;;;;;;17.07;65.27;99197.03;4949128;28;20057;-57
2022/12/20 04:28:58;;;;;;;244.95;146.05;;;;;;;17.36;66.38;99206.72;4948657;28;20070;-60
2022/12/20 04:31:49;;;;;;;259.15;150.02;;;;;;;16.49;66.67;99201.59;4942406;28;20950;-60
2022/12/20 04:34:31;;;;;;;260.90;152.13;;;;;;;17.00;65.90;99206.09;4949485;28;20089;-62
2022/12/20 04:37:20;;;;;;;263.30;154.23;;;;;;;16.75;66.33;99211.84;4948191;28;20062;-59
2022/12/20 04:40:04;;;;;;;261.15;154.25;;;;;;;17.06;65.05;99211.63;4943381;29;20051;-58
2022/12/20 04:42:58;;;;;;;265.08;152.63;;;;;;;17.40;65.55;99202.44;4934993;29;20055;-60
2022/12/20 04:45:49;;;;;;;264.35;157.35;;;;;;;17.36;65.95;99211.34;4955447;28;20078;-61
2022/12/20 04:48:44;;;;;;;268.30;158.07;;;;;;;17.11;67.05;99214.44;4942181;28;20043;-61
2022/12/20 04:51:33;;;;;;;264.92;158.55;;;;;;;17.73;65.71;99217.09;4955606;28;20109;-57
2022/12/20 04:54:26;;;;;;;284.75;161.00;;;;;;;17.77;65.15;99220.94;4938000;28;20055;-58
2022/12/20 04:57:19;;;;;;;266.33;157.68;;;;;;;17.81;66.69;99224.00;4938767;29;20059;-59
2022/12/20 05:00:14;;;;;;;268.58;157.98;;;;;;;17.18;66.84;99220.53;4945547;29;20059;-60
2022/12/20 05:03:05;;;;;;;274.08;158.27;;;;;;;17.62;65.80;99215.28;4936740;28;20046;-60
2022/12/20 05:05:55;;;;;;;267.10;157.00;;;;;;;17.64;65.17;99213.16;4948798;28;20145;-60
2022/12/20 05:08:39;;;;;;;279.90;167.18;;;;;;;17.77;65.04;99220.94;4963994;28;20553;-60
2022/12/20 05:11:35;;;;;;;270.02;162.38;;;;;;;17.80;67.09;99217.72;4947332;28;20050;-58
2022/12/20 05:14:12;;;;;;;269.85;159.73;;;;;;;17.61;67.20;99219.06;4935309;28;20047;-56
2022/12/20 05:17:00;;;;;;;273.75;164.75;;;;;;;17.57;66.20;99220.63;4940694;28;20119;-61
2022/12/20 05:19:49;;;;;;;287.65;166.38;;;;;;;17.60;66.32;99217.44;4948517;28;20082;-62
2022/12/20 05:28:43;;;;;;;293.52;170.77;;;;;;;18.23;65.91;99187.38;4952367;28;20054;-60
2022/12/20 05:31:33;;;;;;;293.70;175.73;;;;;;;17.88;66.11;99185.81;4943105;28;20521;-60
2022/12/20 05:34:15;;;;;;;292.08;169.18;;;;;;;18.05;65.77;99180.34;4954880;28;20059;-60
2022/12/20 05:37:04;;;;;;;295.55;171.82;;;;;;;18.27;65.36;99180.38;4947686;28;20057;-58
2022/12/20 05:39:49;;;;;;;292.73;171.90;;;;;;;18.20;66.47;99183.25;4946693;28;20050;-59
2022/12/20 05:42:39;;;;;;;295.17;171.45;;;;;;;18.43;66.94;99197.69;4940994;28;20062;-59
2022/12/20 05:45:35;;;;;;;296.05;174.70;;;;;;;18.49;64.85;99188.50;4941555;28;20576;-55
2022/12/20 05:48:21;;;;;;;303.48;176.60;;;;;;;17.96;65.83;99193.53;4950059;28;20054;-58
2022/12/20 05:51:11;;;;;;;299.77;177.40;;;;;;;18.47;64.80;99179.78;4959851;28;20113;-58
2022/12/20 05:54:13;;;;;;;289.25;164.40;;;;;;;19.11;65.84;99184.56;4948875;28;20141;-58
2022/12/20 05:57:08;;;;;;;267.60;155.15;;;;;;;19.61;61.48;99177.88;4965089;28;20071;-60
2022/12/20 05:59:50;;;;;;;168.00;100.70;;;;;;;19.61;59.49;99172.41;4949661;28;20054;-61
2022/12/20 06:02:49;;;;;;;185.65;107.53;;;;;;;19.97;62.51;99167.22;4959678;28;20046;-53
2022/12/20 06:05:32;;;;;;;153.13;90.72;;;;;;;19.72;59.06;99170.63;4950267;28;20109;-61
2022/12/20 06:08:27;;;;;;;158.83;86.33;;;;;;;20.03;58.73;99152.53;4253471;28;10001726;-59
2022/12/20 06:11:22;;;;;;;148.68;85.28;;;;;;;20.23;57.57;99150.97;4931689;28;20289;-59
2022/12/20 06:14:14;;;;;;;142.23;81.95;;;;;;;19.89;57.52;99151.34;4948668;28;20053;-60
2022/12/20 06:17:03;;;;;;;135.50;76.28;;;;;;;20.30;56.93;99140.66;4950098;28;20059;-59
2022/12/20 06:19:45;;;;;;;128.00;76.75;;;;;;;20.53;57.44;99131.97;4948549;28;20074;-59
2022/12/20 06:22:36;;;;;;;116.80;67.85;;;;;;;20.53;56.32;99123.81;4941061;28;20043;-59
2022/12/20 06:25:26;;;;;;;129.07;67.78;;;;;;;20.20;54.86;99121.56;4949280;28;20123;-61
2022/12/20 06:28:08;;;;;;;110.55;66.60;;;;;;;20.74;56.78;99118.44;4963757;28;20069;-61
2022/12/20 06:30:58;;;;;;;104.50;64.38;;;;;;;20.40;55.57;99112.59;4941786;28;20057;-58
2022/12/20 06:33:54;;;;;;;107.60;62.92;;;;;;;20.64;55.09;99099.34;4958621;28;20051;-59
2022/12/20 06:36:53;;;;;;;115.38;67.45;;;;;;;20.73;54.98;99101.25;4957065;28;20050;-62
2022/12/20 06:39:32;;;;;;;105.63;62.58;;;;;;;20.36;55.25;99095.97;4939760;28;20054;-59
2022/12/20 06:42:21;;;;;;;109.43;64.05;;;;;;;20.54;55.03;99097.38;4944664;28;20047;-59
2022/12/20 06:45:11;;;;;;;114.22;61.80;;;;;;;20.77;54.40;99096.06;4941368;28;20146;-61
2022/12/20 06:47:53;;;;;;;110.20;63.80;;;;;;;21.26;53.96;99084.56;4929499;29;20057;-60
2022/12/20 06:50:46;;;;;;;104.38;62.20;;;;;;;21.29;53.59;99088.69;4955664;28;20047;-60
2022/12/20 06:53:36;;;;;;;117.45;69.30;;;;;;;21.13;53.94;99074.22;4936183;28;20055;-61
2022/12/20 06:56:18;;;;;;;120.50;69.28;;;;;;;21.40;52.80;99084.00;4956226;28;20058;-60
2022/12/20 06:59:14;;;;;;;103.30;62.65;;;;;;;21.29;52.41;99072.31;4954257;28;20039;-61
2022/12/20 07:01:50;;;;;;;115.57;66.93;;;;;;;21.36;53.12;99078.28;4967404;28;20056;-61
2022/12/20 07:04:44;;;;;;;116.10;68.45;;;;;;;21.19;52.58;99069.56;4958309;28;20051;-61
2022/12/20 07:07:20;;;;;;;108.05;67.55;;;;;;;20.98;52.29;99061.44;4948994;29;20047;-59
2022/12/20 07:10:09;;;;;;;112.00;67.07;;;;;;;21.08;52.99;99060.59;4948805;28;20082;-59
2022/12/20 07:12:58;;;;;;;101.20;61.95;;;;;;;21.10;52.97;99059.22;4950094;28;20149;-59
2022/12/20 07:15:40;;;;;;;108.10;63.13;;;;;;;20.80;53.12;99054.59;4956197;28;20047;-59
2022/12/20 07:18:29;;;;;;;109.00;62.25;;;;;;;21.40;51.61;99051.25;4958604;28;20141;-58
2022/12/20 07:21:15;;;;;;;97.97;60.67;;;;;;;21.28;51.51;99044.16;4956184;28;20125;-60
2022/12/20 07:24:05;;;;;;;102.90;62.03;;;;;;;21.60;51.95;99045.75;4950990;28;20074;-61
2022/12/20 07:26:54;;;;;;;97.60;60.83;;;;;;;21.24;52.67;99043.09;4955649;28;20285;-59
2022/12/20 07:29:43;;;;;;;90.15;57.20;;;;;;;21.27;51.61;99037.09;4942601;28;20055;-61
2022/12/20 07:32:25;;;;;;;102.70;57.25;;;;;;;21.33;50.79;99031.63;4962696;28;20051;-58
2022/12/20 07:35:17;;;;;;;93.60;56.15;;;;;;;21.27;50.52;99037.09;4956888;28;20372;-61
2022/12/20 07:37:59;;;;;;;91.50;55.65;;;;;;;21.72;51.06;99029.03;4957451;28;20050;-57
2022/12/20 07:40:49;;;;;;;88.38;55.95;;;;;;;21.54;50.33;99019.56;4955284;28;20478;-59
2022/12/20 07:43:31;;;;;;;102.88;61.47;;;;;;;21.57;51.11;99013.56;4956221;28;20059;-55
2022/12/20 07:46:21;;;;;;;88.45;54.97;;;;;;;21.59;50.73;99011.38;4953185;28;20051;-58
2022/12/20 07:49:04;;;;;;;87.30;53.75;;;;;;;21.59;49.85;99011.38;4957724;28;20055;-61
2022/12/20 07:52:01;;;;;;;92.30;57.38;;;;;;;21.42;50.78;99008.09;4958417;28;20110;-58
2022/12/20 07:54:58;;;;;;;93.80;56.55;;;;;;;21.45;52.12;99002.94;4957125;28;20051;-57
2022/12/20 07:57:53;;;;;;;93.28;54.30;;;;;;;21.65;50.11;99004.78;4956433;28;20078;-55
2022/12/20 08:00:38;;;;;;;85.10;52.10;;;;;;;21.36;50.02;98995.56;4956819;28;20482;-55
2022/12/20 08:03:50;;;;;;;91.72;54.72;;;;;;;21.08;51.99;99000.56;4959737;28;20344;-60
2022/12/20 08:06:41;;;;;;;86.03;51.20;;;;;;;21.07;51.38;98990.72;4938286;28;20138;-59
2022/12/20 08:09:24;;;;;;;89.22;53.97;;;;;;;21.17;50.87;98988.00;4956140;28;20058;-59
2022/12/20 08:12:23;;;;;;;91.68;56.20;;;;;;;21.23;51.20;98989.59;4943440;28;20526;-60
2022/12/20 08:14:59;;;;;;;89.88;55.78;;;;;;;21.50;51.09;98977.53;4955428;28;20054;-57
2022/12/20 08:17:56;;;;;;;96.63;55.92;;;;;;;21.17;51.75;98971.63;4952818;28;20641;-61
2022/12/20 08:20:32;;;;;;;97.13;54.20;;;;;;;21.00;51.21;98969.19;4954354;28;20059;-59
2022/12/20 08:23:27;;;;;;;91.28;52.97;;;;;;;21.34;50.65;98965.81;4958715;28;20051;-56
2022/12/20 08:26:03;;;;;;;88.88;52.60;;;;;;;21.31;50.87;98963.66;4953666;28;20530;-58
2022/12/20 08:28:57;;;;;;;93.85;56.53;;;;;;;21.40;51.43;98956.53;4949276;28;20063;-57
2022/12/20 08:31:36;;;;;;;95.43;57.67;;;;;;;21.48;51.06;98953.22;4954675;28;20066;-57
2022/12/20 08:34:36;;;;;;;94.85;57.47;;;;;;;21.32;51.00;98946.16;4955761;28;20118;-52
2022/12/20 08:37:12;;;;;;;110.72;60.28;;;;;;;21.18;51.65;98937.75;4955360;28;20039;-55
2022/12/20 08:40:07;;;;;;;106.68;63.05;;;;;;;21.06;52.67;98937.25;4955541;28;20065;-54
2022/12/20 08:42:43;;;;;;;102.97;58.83;;;;;;;21.18;52.67;98935.03;4958089;28;20043;-56
2022/12/20 08:45:37;;;;;;;98.93;59.35;;;;;;;20.96;52.44;98926.34;4937311;28;20046;-57
2022/12/20 08:48:26;;;;;;;93.25;57.45;;;;;;;20.75;52.01;98926.44;4955706;28;20070;-57
2022/12/20 08:51:15;;;;;;;96.28;57.40;;;;;;;21.01;52.23;98929.88;4957131;28;20402;-56
2022/12/20 08:53:58;;;;;;;112.25;65.13;;;;;;;20.81;53.05;98914.41;4956233;28;20075;-58
2022/12/20 08:56:53;;;;;;;119.50;65.05;;;;;;;21.34;52.34;98916.66;4953024;28;20067;-60
2022/12/20 08:59:29;;;;;;;116.28;65.45;;;;;;;21.44;52.11;98903.00;4954220;28;20046;-59
2022/12/20 09:02:24;;;;;;;115.55;63.58;;;;;;;21.49;50.80;98907.63;4957971;28;20058;-57
2022/12/20 09:05:01;;;;;;;102.75;61.55;;;;;;;21.58;49.90;98911.41;4953755;28;20053;-58
2022/12/20 09:07:56;;;;;;;115.27;65.50;;;;;;;21.37;50.80;98904.38;4955936;28;20106;-61
2022/12/20 09:10:32;;;;;;;114.78;64.07;;;;;;;21.04;51.69;98898.53;4951813;28;20696;-59
2022/12/20 09:13:27;;;;;;;117.70;66.33;;;;;;;21.11;51.78;98899.03;4958242;28;20460;-57
2022/12/20 09:16:05;;;;;;;108.15;62.42;;;;;;;21.39;51.14;98896.72;4956217;28;20082;-59
2022/12/20 09:19:04;;;;;;;102.07;55.25;;;;;;;21.49;50.27;98896.69;4955770;28;20118;-60
2022/12/20 09:21:40;;;;;;;89.88;54.03;;;;;;;21.22;49.40;98903.34;4954129;28;20069;-56
2022/12/20 09:24:35;;;;;;;90.57;53.22;;;;;;;21.09;48.42;98893.03;4954089;28;20083;-59
2022/12/20 09:27:11;;;;;;;77.13;45.38;;;;;;;21.35;47.32;98885.56;4955567;28;20683;-57
2022/12/20 09:29:59;;;;;;;81.85;46.65;;;;;;;21.50;47.46;98880.03;4955895;28;20410;-56
2022/12/20 09:32:48;;;;;;;86.93;53.72;;;;;;;21.47;48.57;98877.06;4942226;28;20532;-58
2022/12/20 09:35:32;;;;;;;91.80;53.97;;;;;;;21.44;48.85;98877.63;4958084;28;20118;-56
2022/12/20 09:38:21;;;;;;;91.30;53.08;;;;;;;21.55;48.08;98873.72;4958600;28;20336;-59
2022/12/20 09:41:41;;;;;;;104.70;52.80;;;;;;;21.40;48.45;98866.44;4951782;28;20130;-59
2022/12/20 09:44:36;;;;;;;85.20;52.30;;;;;;;21.47;49.11;98857.94;4948108;28;20055;-55
2022/12/20 09:47:23;;;;;;;105.40;55.22;;;;;;;21.11;49.74;98871.72;4964669;28;20070;-58
2022/12/20 09:50:13;;;;;;;84.53;50.97;;;;;;;21.36;49.23;98862.59;4962516;28;20059;-57
2022/12/20 09:53:31;;;;;;;93.05;53.25;;;;;;;21.50;48.53;98860.13;4953014;28;20043;-58
2022/12/20 09:56:22;;;;;;;90.45;51.63;;;;;;;21.28;48.19;98863.19;4930624;28;20043;-58
2022/12/20 09:59:22;;;;;;;76.78;46.13;;;;;;;21.43;47.76;98856.84;4954266;28;20079;-60
2022/12/20 10:02:04;;;;;;;90.93;51.27;;;;;;;21.52;48.61;98855.19;4949872;28;20055;-58
2022/12/20 10:05:37;;;;;;;82.53;51.10;;;;;;;21.44;48.67;98851.13;4929244;28;20051;-58
2022/12/20 10:09:04;;;;;;;85.38;46.92;;;;;;;21.57;46.92;98846.97;4948658;28;20154;-60
2022/12/20 10:12:20;;;;;;;69.10;41.20;;;;;;;21.40;47.61;98849.22;4876722;29;20060;-60
2022/12/20 10:15:26;;;;;;;66.50;39.47;;;;;;;21.38;45.29;98840.47;4938619;28;20703;-61
2022/12/20 10:18:14;;;;;;;62.05;36.00;;;;;;;21.24;45.34;98832.09;4939731;28;20052;-60
2022/12/20 10:21:31;;;;;;;62.15;36.75;;;;;;;21.05;45.90;98831.94;4945404;28;20062;-59
2022/12/20 10:24:19;;;;;;;66.85;41.97;;;;;;;21.33;45.16;98832.34;4944836;28;20284;-58
2022/12/20 10:27:24;;;;;;;75.25;39.88;;;;;;;21.15;46.18;98833.78;4944730;28;20590;-61
2022/12/20 10:30:14;;;;;;;73.35;39.17;;;;;;;20.98;47.60;98820.50;4945709;28;20138;-56
2022/12/20 10:33:04;;;;;;;83.78;47.45;;;;;;;21.00;50.04;98818.28;4948691;28;20114;-52
2022/12/20 10:35:47;;;;;;;92.20;49.10;;;;;;;20.99;50.52;98819.41;4949900;28;20472;-56
2022/12/20 10:38:57;;;;;;;86.25;47.38;;;;;;;21.03;48.98;98817.75;4947910;28;20110;-56
2022/12/20 10:41:50;;;;;;;85.55;46.15;;;;;;;21.08;49.57;98821.28;4948078;28;20059;-55
2022/12/20 10:44:39;;;;;;;81.90;46.25;;;;;;;20.96;48.67;98812.59;4946802;29;20054;-60
2022/12/20 10:47:45;;;;;;;102.68;48.13;;;;;;;20.95;50.29;98819.16;4946190;28;20051;-55
2022/12/20 10:50:41;;;;;;;113.85;50.38;;;;;;;20.86;51.95;98813.44;4941179;29;20047;-54
2022/12/20 10:53:23;;;;;;;89.95;46.95;;;;;;;20.96;49.78;98809.03;4941635;29;20066;-59
2022/12/20 10:56:35;;;;;;;72.35;44.75;;;;;;;20.81;49.58;98808.03;4941438;29;20570;-55
2022/12/20 10:59:17;;;;;;;86.50;47.50;;;;;;;20.70;50.77;98800.97;4939171;29;20063;-58
2022/12/20 11:02:32;;;;;;;77.82;45.95;;;;;;;20.56;53.60;98803.44;4943453;29;20054;-58
2022/12/20 11:05:28;;;;;;;70.57;44.00;;;;;;;20.47;51.88;98797.75;4942150;29;20055;-58
2022/12/20 11:08:25;;;;;;;75.88;43.90;;;;;;;20.45;51.14;98802.66;4931531;28;20783;-58
2022/12/20 11:11:22;;;;;;;65.93;43.65;;;;;;;20.38;52.42;98796.66;4942027;29;20047;-59
2022/12/20 11:14:21;;;;;;;91.25;50.65;;;;;;;20.35;50.91;98789.06;4945046;29;20047;-59
2022/12/20 11:16:59;;;;;;;89.22;47.35;;;;;;;20.15;53.75;98782.53;4942112;29;20062;-55
2022/12/20 11:19:57;;;;;;;81.13;47.38;;;;;;;20.11;54.13;98786.91;4942125;29;20047;-55
2022/12/20 11:22:45;;;;;;;76.70;47.15;;;;;;;19.94;54.86;98784.47;4940525;29;20226;-58
2022/12/20 11:26:07;;;;;;;84.18;46.28;;;;;;;19.88;52.92;98785.56;4924939;29;20479;-55
2022/12/20 11:29:39;;;;;;;82.53;45.40;;;;;;;19.81;53.31;98779.56;4940290;29;20123;-54
2022/12/20 11:32:27;;;;;;;74.93;45.70;;;;;;;19.64;55.55;98784.44;4942411;29;20119;-55
2022/12/20 11:35:32;;;;;;;74.68;43.17;;;;;;;19.70;55.64;98784.19;4942712;29;20056;-59
2022/12/20 11:38:29;;;;;;;72.53;42.75;;;;;;;19.72;54.32;98787.50;4937648;29;20107;-57
2022/12/20 11:41:51;;;;;;;80.45;44.80;;;;;;;19.51;55.35;98789.34;4940138;28;20153;-57
2022/12/20 11:44:27;;;;;;;78.72;45.00;;;;;;;19.25;57.97;98784.97;4938858;29;20052;-57
2022/12/20 11:47:41;;;;;;;78.15;44.03;;;;;;;19.14;57.26;98786.84;4943350;29;20392;-56
2022/12/20 11:50:45;;;;;;;81.80;43.00;;;;;;;19.00;57.27;98788.44;4935566;28;20062;-56
2022/12/20 11:53:43;;;;;;;78.13;42.72;;;;;;;18.94;57.03;98785.69;4944403;28;20058;-59
2022/12/20 11:56:34;;;;;;;76.00;43.40;;;;;;;18.91;56.56;98791.66;4937884;28;20055;-57
2022/12/20 11:59:49;;;;;;;76.72;43.28;;;;;;;18.67;58.74;98788.56;4939079;28;20047;-56
2022/12/20 12:02:47;;;;;;;74.82;43.70;;;;;;;18.41;58.95;98784.06;4939092;28;20051;-60
2022/12/20 12:05:49;;;;;;;80.95;44.20;;;;;;;18.17;59.96;98785.31;4935705;28;20144;-63
2022/12/20 12:08:39;;;;;;;81.00;45.78;;;;;;;18.26;59.83;98791.03;4939582;28;20051;-62
2022/12/20 12:11:38;;;;;;;88.03;47.03;;;;;;;18.12;59.60;98795.31;4937163;28;20086;-56
2022/12/20 12:15:17;;;;;;;90.30;48.10;;;;;;;17.92;60.99;98791.38;4942896;29;20066;-62
2022/12/20 12:18:41;;;;;;;86.30;47.70;;;;;;;17.88;61.03;98789.44;4939600;28;20070;-63
2022/12/20 12:21:34;;;;;;;96.45;49.72;;;;;;;17.71;62.35;98790.38;4931928;28;20039;-63
2022/12/20 12:24:33;;;;;;;94.68;48.53;;;;;;;17.74;61.96;98791.72;4938939;28;20106;-64
2022/12/20 12:27:26;;;;;;;89.95;48.85;;;;;;;17.75;62.57;98793.34;4942301;28;20154;-62
2022/12/20 12:30:20;;;;;;;108.67;50.33;;;;;;;17.60;61.74;98794.06;4939684;28;20055;-60
2022/12/20 12:33:11;;;;;;;97.85;50.45;;;;;;;17.64;62.44;98794.38;4940464;28;20294;-63
2022/12/20 12:36:23;;;;;;;98.45;50.00;;;;;;;17.64;62.87;98792.47;4937770;28;20066;-61
2022/12/20 12:39:24;;;;;;;102.70;50.95;;;;;;;17.44;63.69;98797.69;4928553;29;20062;-64
2022/12/20 12:42:34;;;;;;;98.90;52.88;;;;;;;17.28;63.69;98796.75;4940803;28;20475;-61
2022/12/20 12:45:34;;;;;;;101.18;52.38;;;;;;;17.30;64.14;98795.41;4932338;28;20210;-63
2022/12/20 12:48:49;;;;;;;116.53;56.03;;;;;;;17.13;65.46;98795.50;4942312;28;20070;-62
2022/12/20 12:51:42;;;;;;;108.70;54.13;;;;;;;17.08;66.04;98797.31;4956365;28;20294;-63
2022/12/20 12:54:47;;;;;;;116.43;59.53;;;;;;;17.01;66.12;98795.66;4953181;28;20126;-62
2022/12/20 12:57:58;;;;;;;109.65;54.30;;;;;;;17.08;66.04;98805.47;4954380;28;20285;-63
2022/12/20 13:00:54;;;;;;;119.53;57.05;;;;;;;17.04;66.38;98799.72;4954553;28;20182;-63
2022/12/20 13:03:53;;;;;;;120.22;59.13;;;;;;;17.05;66.55;98804.09;4952563;28;20054;-63
2022/12/20 13:06:35;;;;;;;132.05;61.85;;;;;;;16.90;67.53;98802.03;4270117;28;10000799;-64
2022/12/20 13:09:24;;;;;;;118.95;60.97;;;;;;;16.90;67.36;98806.63;4952420;28;20801;-65
2022/12/20 13:12:45;;;;;;;116.40;58.97;;;;;;;17.05;67.03;98808.69;4951743;28;20497;-64
2022/12/20 13:15:29;;;;;;;125.03;58.08;;;;;;;16.72;67.81;98811.25;4949119;28;20046;-63